Terminal Aerodrome Forecast
Issued by NWS Charleston, WV

Current Version | Previous Version | Graphics & Text | Print | Product List | Glossary On
Versions: 1 2 3 4 5 6 7 8 9 10 11 12 13 14 15 16 17 18 19 20 21 22 23 24 25 26 27 28
000
FTUS41 KRLX 260200 AAA
TAFHTS
TAF AMD
KHTS 260230Z 2603/2624 04007KT 4SM -SHRA VCTS OVC005CB
     FM260600 02008KT 6SM -SHRA OVC008
     FM260800 35009KT P6SM OVC015
     FM261000 34009KT P6SM OVC030
     FM261300 34010KT P6SM BKN040
     FM261700 34010G16KT P6SM SCT045=

USA.gov is the U.S. government's official web portal to all federal, state and local government web resources and services.